createdAt,value
2019-01-27T00:01:14.794Z,76.97
2019-01-27T00:03:44.655Z,78.97
2019-01-27T00:06:13.770Z,79.70
2019-01-27T00:08:43.527Z,71.67
2019-01-27T00:11:13.950Z,74.43
2019-01-27T00:13:43.773Z,74.07
2019-01-27T00:16:13.675Z,64.13
2019-01-27T00:18:43.094Z,66.80
2019-01-27T00:21:12.496Z,70.23
2019-01-27T00:23:42.034Z,69.13
2019-01-27T00:26:11.889Z,71.13
2019-01-27T00:28:41.343Z,66.33
2019-01-27T00:31:10.860Z,66.27
2019-01-27T00:33:40.368Z,73.00
2019-01-27T00:36:10.241Z,68.40
2019-01-27T00:38:39.714Z,67.10
2019-01-27T00:41:09.214Z,67.70
2019-01-27T00:43:38.988Z,72.13
2019-01-27T00:46:08.811Z,71.77
2019-01-27T00:48:38.324Z,72.17
2019-01-27T00:51:07.932Z,70.77
2019-01-27T00:53:37.051Z,75.77
2019-01-27T00:56:06.595Z,77.37
2019-01-27T00:58:36.080Z,76.73
2019-01-27T01:01:06.367Z,78.33
2019-01-27T01:03:36.174Z,72.97
2019-01-27T01:06:05.557Z,82.50
2019-01-27T01:08:34.656Z,73.40
2019-01-27T01:11:04.516Z,77.43
2019-01-27T01:13:34.012Z,81.20
2019-01-27T01:16:03.502Z,74.90
2019-01-27T01:18:32.982Z,77.73
2019-01-27T01:21:02.111Z,68.93
2019-01-27T01:23:31.580Z,76.43
2019-01-27T01:26:01.080Z,70.83
2019-01-27T01:28:30.587Z,72.23
2019-01-27T01:30:59.976Z,66.33
2019-01-27T01:33:30.089Z,62.37
2019-01-27T01:36:00.109Z,64.70
2019-01-27T01:38:29.539Z,62.87
2019-01-27T01:40:58.976Z,66.27
2019-01-27T01:43:28.110Z,62.33
2019-01-27T01:45:57.834Z,60.10
2019-01-27T01:48:27.266Z,62.23
2019-01-27T01:50:57.243Z,53.37
2019-01-27T01:53:26.639Z,54.40
2019-01-27T01:55:56.425Z,52.83
2019-01-27T01:58:26.690Z,51.33
2019-01-27T02:00:56.050Z,52.77
2019-01-27T02:03:25.959Z,55.10
2019-01-27T02:05:55.130Z,51.77
2019-01-27T02:08:24.679Z,55.50
2019-01-27T02:10:53.845Z,48.73
2019-01-27T02:13:24.399Z,54.03
2019-01-27T02:16:05.765Z,53.57
2019-01-27T02:18:35.457Z,48.83
2019-01-27T02:21:05.499Z,49.17
2019-01-27T02:23:34.914Z,49.50
2019-01-27T02:26:04.925Z,50.77
2019-01-27T02:28:34.366Z,47.73
2019-01-27T02:31:03.448Z,45.77
2019-01-27T02:33:32.819Z,46.07
2019-01-27T02:36:02.365Z,48.20
2019-01-27T02:38:31.464Z,44.27
2019-01-27T02:41:00.600Z,49.60
2019-01-27T02:43:29.992Z,42.47
2019-01-27T02:45:59.469Z,49.03
2019-01-27T02:48:29.269Z,50.97
2019-01-27T02:50:58.668Z,49.13
2019-01-27T02:53:28.437Z,47.50
2019-01-27T02:55:58.607Z,45.67
2019-01-27T02:58:28.801Z,50.20
2019-01-27T03:00:58.324Z,47.57
2019-01-27T03:03:27.416Z,45.87
2019-01-27T03:06:06.246Z,53.07
2019-01-27T03:08:42.715Z,46.97
2019-01-27T03:11:12.629Z,49.47
2019-01-27T03:13:42.356Z,46.83
2019-01-27T03:16:12.614Z,50.07
2019-01-27T03:18:42.205Z,55.47
2019-01-27T03:21:12.422Z,48.87
2019-01-27T03:23:42.542Z,49.80
2019-01-27T03:26:12.441Z,50.77
2019-01-27T03:28:41.519Z,53.87
2019-01-27T03:31:10.620Z,58.93
2019-01-27T03:33:40.097Z,52.97
2019-01-27T03:36:10.001Z,55.40
2019-01-27T03:38:39.153Z,60.07
2019-01-27T03:41:08.588Z,60.57
2019-01-27T03:43:39.189Z,56.80
2019-01-27T03:46:08.628Z,60.60
2019-01-27T03:48:38.441Z,68.90
2019-01-27T03:51:07.636Z,63.70
2019-01-27T03:53:36.755Z,67.07
2019-01-27T03:56:06.718Z,66.77
2019-01-27T03:58:36.171Z,70.73
2019-01-27T04:01:06.546Z,70.17
2019-01-27T04:03:35.945Z,66.03
2019-01-27T04:06:05.816Z,70.17
2019-01-27T04:08:35.214Z,70.37
2019-01-27T04:11:04.299Z,64.30
2019-01-27T04:13:33.432Z,60.90
2019-01-27T04:16:02.937Z,63.27
2019-01-27T04:18:32.415Z,60.00
2019-01-27T04:21:01.570Z,59.30
2019-01-27T04:23:31.359Z,58.57
2019-01-27T04:26:00.568Z,56.97
2019-01-27T04:28:30.385Z,61.23
2019-01-27T04:31:00.190Z,56.90
2019-01-27T04:33:29.726Z,56.97
2019-01-27T04:35:59.569Z,59.20
2019-01-27T04:38:28.643Z,60.00
2019-01-27T04:40:57.763Z,60.00
2019-01-27T04:43:27.527Z,66.13
2019-01-27T04:45:57.237Z,63.27
2019-01-27T04:48:27.443Z,60.03
2019-01-27T04:50:57.275Z,60.07
2019-01-27T04:53:26.413Z,61.10
2019-01-27T04:55:55.872Z,54.50
2019-01-27T04:58:25.458Z,58.20
2019-01-27T05:00:54.577Z,57.43
2019-01-27T05:03:37.366Z,64.47
2019-01-27T05:06:07.723Z,70.70
2019-01-27T05:08:36.939Z,77.97
2019-01-27T05:11:06.381Z,68.40
2019-01-27T05:13:36.118Z,72.40
2019-01-27T05:16:05.972Z,70.07
2019-01-27T05:18:35.676Z,69.50
2019-01-27T05:21:04.777Z,72.77
2019-01-27T05:23:34.173Z,68.17
2019-01-27T05:26:03.336Z,69.67
2019-01-27T05:28:32.778Z,68.60
2019-01-27T05:31:02.673Z,74.90
2019-01-27T05:33:32.130Z,69.13
2019-01-27T05:36:01.580Z,71.23
2019-01-27T05:38:31.450Z,70.03
2019-01-27T05:41:00.956Z,78.50
2019-01-27T05:43:30.356Z,79.10
2019-01-27T05:46:00.095Z,72.67
2019-01-27T05:48:30.324Z,93.57
2019-01-27T05:50:59.424Z,92.23
2019-01-27T05:53:28.604Z,91.30
2019-01-27T05:55:58.404Z,94.93
2019-01-27T05:58:28.522Z,97.93
2019-01-27T06:00:58.244Z,101.97
2019-01-27T06:03:27.760Z,107.47
2019-01-27T06:05:57.547Z,108.63
2019-01-27T06:08:27.297Z,103.27
2019-01-27T06:10:56.833Z,108.37
2019-01-27T06:13:26.591Z,107.80
2019-01-27T06:15:56.641Z,105.03
2019-01-27T06:18:25.786Z,105.83
2019-01-27T06:20:55.300Z,96.27
2019-01-27T06:23:25.167Z,87.80
2019-01-27T06:25:55.413Z,95.50
2019-01-27T06:28:24.565Z,102.63
2019-01-27T06:30:54.404Z,100.47
2019-01-27T06:33:47.336Z,91.03
2019-01-27T06:36:16.781Z,92.47
2019-01-27T06:38:46.481Z,84.27
2019-01-27T06:41:16.737Z,87.00
2019-01-27T06:43:46.628Z,93.53
2019-01-27T06:46:16.470Z,87.73
2019-01-27T06:48:46.224Z,99.27
2019-01-27T06:51:15.995Z,94.37
2019-01-27T06:53:45.482Z,105.57
2019-01-27T06:56:15.026Z,95.30
2019-01-27T06:59:02.182Z,102.10
2019-01-27T07:01:40.236Z,109.70
2019-01-27T07:04:27.360Z,99.50
2019-01-27T07:07:07.262Z,111.70
2019-01-27T07:09:56.084Z,107.30
2019-01-27T07:12:46.818Z,97.87
2019-01-27T07:15:33.576Z,123.73
2019-01-27T07:18:18.920Z,116.43
2019-01-27T07:21:22.325Z,108.27
2019-01-27T07:24:08.778Z,109.60
2019-01-27T07:26:56.134Z,97.20
2019-01-27T07:29:42.321Z,90.57
2019-01-27T07:32:29.554Z,94.67
2019-01-27T07:35:09.189Z,87.73
2019-01-27T07:37:46.031Z,82.20
2019-01-27T07:40:40.683Z,80.87
2019-01-27T07:43:25.450Z,139.00
2019-01-27T07:46:01.367Z,110.50
2019-01-27T07:48:48.253Z,105.67
2019-01-27T07:51:55.169Z,90.60
2019-01-27T07:54:46.261Z,82.17
2019-01-27T07:57:23.144Z,75.67
2019-01-27T08:00:02.947Z,76.77
2019-01-27T08:02:42.480Z,75.20
2019-01-27T08:05:33.470Z,69.30
2019-01-27T08:08:31.132Z,75.90
2019-01-27T08:11:17.368Z,76.20
2019-01-27T08:14:13.933Z,85.33
2019-01-27T08:17:21.488Z,72.00
2019-01-27T08:20:09.434Z,61.47
2019-01-27T08:22:58.034Z,51.60
2019-01-27T08:25:35.688Z,54.47
2019-01-27T08:28:15.560Z,57.67
2019-01-27T08:30:51.793Z,61.27
2019-01-27T08:33:39.870Z,57.40
2019-01-27T08:36:23.999Z,54.20
2019-01-27T08:39:09.959Z,55.47
2019-01-27T08:42:01.096Z,58.10
2019-01-27T08:44:44.363Z,60.10
2019-01-27T08:47:14.081Z,62.97
2019-01-27T08:49:44.157Z,67.03
2019-01-27T08:52:14.139Z,61.17
2019-01-27T08:54:43.373Z,71.93
2019-01-27T08:57:13.138Z,69.63
2019-01-27T08:59:42.927Z,73.13
2019-01-27T09:02:32.619Z,80.17
2019-01-27T09:05:12.447Z,71.53
2019-01-27T09:08:10.631Z,90.57
2019-01-27T09:10:58.336Z,99.43
2019-01-27T09:13:46.683Z,77.23
2019-01-27T09:16:35.338Z,98.80
2019-01-27T09:19:26.571Z,100.20
2019-01-27T09:22:15.050Z,91.13
2019-01-27T09:25:05.909Z,75.77
2019-01-27T09:27:54.027Z,68.40
2019-01-27T09:30:41.869Z,66.17
2019-01-27T09:33:32.932Z,61.17
2019-01-27T09:36:15.030Z,59.93
2019-01-27T09:39:22.201Z,62.70
2019-01-27T09:42:29.311Z,64.57
2019-01-27T09:45:07.735Z,68.20
2019-01-27T09:48:03.819Z,58.67
2019-01-27T09:50:51.974Z,73.23
2019-01-27T09:53:43.037Z,68.73
2019-01-27T09:56:25.691Z,65.97
2019-01-27T09:59:15.259Z,62.03
2019-01-27T10:02:18.657Z,67.73
2019-01-27T10:04:53.273Z,69.13
2019-01-27T10:07:41.423Z,61.60
2019-01-27T10:10:24.947Z,64.70
2019-01-27T10:13:03.807Z,67.57
2019-01-27T10:15:50.598Z,68.97
2019-01-27T10:18:30.361Z,71.43
2019-01-27T10:21:25.132Z,80.33
2019-01-27T10:24:16.737Z,89.03
2019-01-27T10:27:03.736Z,98.43
2019-01-27T10:29:53.539Z,113.83
2019-01-27T10:32:47.983Z,100.47
2019-01-27T10:35:42.796Z,85.23
2019-01-27T10:38:18.376Z,82.20
2019-01-27T10:40:53.458Z,68.17
2019-01-27T10:43:33.092Z,64.33
2019-01-27T10:46:16.034Z,55.70
2019-01-27T10:49:10.048Z,49.73
2019-01-27T10:51:59.823Z,68.40
2019-01-27T10:54:54.532Z,59.90
2019-01-27T10:57:38.495Z,47.37
2019-01-27T11:00:39.735Z,53.37
2019-01-27T11:03:46.573Z,41.77
2019-01-27T11:06:29.783Z,56.47
2019-01-27T11:09:17.087Z,65.07
2019-01-27T11:12:03.916Z,65.47
2019-01-27T11:14:44.039Z,68.00
2019-01-27T11:17:27.715Z,56.80
2019-01-27T11:20:13.051Z,61.67
2019-01-27T11:22:56.049Z,59.67
2019-01-27T11:25:44.608Z,63.00
2019-01-27T11:28:27.494Z,59.00
2019-01-27T11:31:04.617Z,67.87
2019-01-27T11:33:59.827Z,41.37
2019-01-27T11:36:50.840Z,37.97
2019-01-27T11:39:37.784Z,36.53
2019-01-27T11:42:27.113Z,36.80
2019-01-27T11:45:15.934Z,46.77
2019-01-27T11:48:04.103Z,52.30
2019-01-27T11:50:58.873Z,50.27
2019-01-27T11:53:28.577Z,55.00
2019-01-27T11:55:58.411Z,42.77
2019-01-27T11:58:28.307Z,44.57
2019-01-27T12:01:00.274Z,39.43
2019-01-27T12:03:29.704Z,41.03
2019-01-27T12:05:58.837Z,46.20
2019-01-27T12:08:28.209Z,53.93
2019-01-27T12:10:57.732Z,40.20
2019-01-27T12:13:27.658Z,39.23
2019-01-27T12:15:56.808Z,40.67
2019-01-27T12:18:26.359Z,34.33
2019-01-27T12:20:56.570Z,37.57
2019-01-27T12:23:26.744Z,38.33
2019-01-27T12:25:56.324Z,32.47
2019-01-27T12:28:25.533Z,38.03
2019-01-27T12:30:54.954Z,35.23
2019-01-27T12:33:24.469Z,37.47
2019-01-27T12:35:53.967Z,37.13
2019-01-27T12:38:24.110Z,36.63
2019-01-27T12:40:53.615Z,42.83
2019-01-27T12:43:22.988Z,38.50
2019-01-27T12:45:52.832Z,38.20
2019-01-27T12:48:21.977Z,42.60
2019-01-27T12:50:52.054Z,33.90
2019-01-27T12:53:21.944Z,29.70
2019-01-27T12:55:51.883Z,39.20
2019-01-27T12:58:21.851Z,32.80
2019-01-27T13:00:58.706Z,43.57
2019-01-27T13:03:28.724Z,33.47
2019-01-27T13:05:58.355Z,38.40
2019-01-27T13:08:46.661Z,37.20
2019-01-27T13:11:16.357Z,51.00
2019-01-27T13:13:46.652Z,43.17
2019-01-27T13:16:16.714Z,46.90
2019-01-27T13:18:46.167Z,46.67
2019-01-27T13:21:15.796Z,40.40
2019-01-27T13:23:45.931Z,38.80
2019-01-27T13:26:15.283Z,39.53
2019-01-27T13:28:45.160Z,36.00
2019-01-27T13:31:15.038Z,40.30
2019-01-27T13:33:45.485Z,40.73
2019-01-27T13:36:14.973Z,46.53
2019-01-27T13:38:50.860Z,50.13
2019-01-27T13:41:15.444Z,49.10
2019-01-27T13:43:44.854Z,51.57
2019-01-27T13:46:14.219Z,47.80
2019-01-27T13:48:44.040Z,46.93
2019-01-27T13:51:13.335Z,46.50
2019-01-27T13:53:43.433Z,43.40
2019-01-27T13:56:15.923Z,46.60
2019-01-27T13:58:45.831Z,37.10
2019-01-27T14:01:15.652Z,36.57
2019-01-27T14:03:45.324Z,41.57
2019-01-27T14:06:15.242Z,36.20
2019-01-27T14:08:44.830Z,34.17
2019-01-27T14:11:14.242Z,31.93
2019-01-27T14:13:44.409Z,33.33
2019-01-27T14:16:14.177Z,36.80
2019-01-27T14:18:43.611Z,38.07
2019-01-27T14:21:16.673Z,30.73
2019-01-27T14:23:45.466Z,37.40
2019-01-27T14:26:15.344Z,37.80
2019-01-27T14:28:45.064Z,37.20
2019-01-27T14:31:14.822Z,38.87
2019-01-27T14:33:44.448Z,37.67
2019-01-27T14:36:14.147Z,39.63
2019-01-27T14:38:44.078Z,38.63
2019-01-27T14:41:13.426Z,40.47
2019-01-27T14:43:43.217Z,47.23
2019-01-27T14:46:13.055Z,47.73
2019-01-27T14:48:42.547Z,43.10
2019-01-27T14:51:12.157Z,40.93
2019-01-27T14:53:41.834Z,47.70
2019-01-27T14:56:11.430Z,49.17
2019-01-27T14:58:41.615Z,52.47
2019-01-27T15:01:11.284Z,44.43
2019-01-27T15:03:41.125Z,59.63
2019-01-27T15:06:11.515Z,57.13
2019-01-27T15:08:40.918Z,52.57
2019-01-27T15:11:10.674Z,53.13
2019-01-27T15:13:40.290Z,51.87
2019-01-27T15:16:10.252Z,68.13
2019-01-27T15:18:40.305Z,59.30
2019-01-27T15:21:15.298Z,61.80
2019-01-27T15:23:45.161Z,59.00
2019-01-27T15:26:15.058Z,58.60
2019-01-27T15:28:44.842Z,42.73
2019-01-27T15:31:15.172Z,38.70
2019-01-27T15:33:44.872Z,36.07
2019-01-27T15:36:14.655Z,33.27
2019-01-27T15:38:44.358Z,36.30
2019-01-27T15:41:14.801Z,36.07
2019-01-27T15:43:48.780Z,32.97
2019-01-27T15:46:16.527Z,37.77
2019-01-27T15:48:45.736Z,36.23
2019-01-27T15:51:15.360Z,37.50
2019-01-27T15:53:45.208Z,41.00
2019-01-27T15:56:14.847Z,41.47
2019-01-27T15:58:44.500Z,36.30
2019-01-27T16:01:14.041Z,40.97
2019-01-27T16:03:44.476Z,37.37
2019-01-27T16:06:13.727Z,39.80
2019-01-27T16:08:43.250Z,41.07
2019-01-27T16:11:12.450Z,39.83
2019-01-27T16:13:42.041Z,38.73
2019-01-27T16:16:11.608Z,35.80
2019-01-27T16:18:41.120Z,32.60
2019-01-27T16:21:10.744Z,30.50
2019-01-27T16:23:46.443Z,30.77
2019-01-27T16:26:15.996Z,36.20
2019-01-27T16:28:45.439Z,37.23
2019-01-27T16:31:39.475Z,33.87
2019-01-27T16:34:18.238Z,37.03
2019-01-27T16:36:48.395Z,31.93
2019-01-27T16:39:18.044Z,28.67
2019-01-27T16:41:47.301Z,31.17
2019-01-27T16:44:16.660Z,42.73
2019-01-27T16:46:45.818Z,41.70
2019-01-27T16:49:15.073Z,37.60
2019-01-27T16:51:48.935Z,36.87
2019-01-27T16:54:15.646Z,32.17
2019-01-27T16:56:45.637Z,40.13
2019-01-27T16:59:15.754Z,34.70
2019-01-27T17:01:45.328Z,42.50
2019-01-27T17:04:15.279Z,42.13
2019-01-27T17:06:45.215Z,43.73
2019-01-27T17:09:15.330Z,43.63
2019-01-27T17:11:45.923Z,47.10
2019-01-27T17:14:15.302Z,51.30
2019-01-27T17:16:45.115Z,59.77
2019-01-27T17:19:15.402Z,67.20
2019-01-27T17:21:45.155Z,69.67
2019-01-27T17:24:14.954Z,62.87
2019-01-27T17:26:44.409Z,71.73
2019-01-27T17:29:13.618Z,83.90
2019-01-27T17:31:44.822Z,91.83
2019-01-27T17:34:14.030Z,104.70
2019-01-27T17:36:43.508Z,101.40
2019-01-27T17:39:13.587Z,101.70
2019-01-27T17:41:43.482Z,93.10
2019-01-27T17:44:12.802Z,92.70
2019-01-27T17:46:42.046Z,98.87
2019-01-27T17:49:11.159Z,97.00
2019-01-27T17:51:40.637Z,98.57
2019-01-27T17:54:10.513Z,100.33
2019-01-27T17:56:39.769Z,104.67
2019-01-27T17:59:29.843Z,88.87
2019-01-27T18:02:24.159Z,94.60
2019-01-27T18:05:28.484Z,87.73
2019-01-27T18:08:15.043Z,96.23
2019-01-27T18:11:25.631Z,96.63
2019-01-27T18:14:12.417Z,101.27
2019-01-27T18:16:42.049Z,106.33
2019-01-27T18:19:11.982Z,105.00
2019-01-27T18:21:41.602Z,97.17
2019-01-27T18:24:12.200Z,106.93
2019-01-27T18:26:42.215Z,95.70
2019-01-27T18:29:11.584Z,99.00
2019-01-27T18:31:40.806Z,105.70
2019-01-27T18:34:10.374Z,107.27
2019-01-27T18:36:40.197Z,98.20
2019-01-27T18:39:12.356Z,108.67
2019-01-27T18:41:42.433Z,108.67
2019-01-27T18:44:11.752Z,108.07
2019-01-27T18:46:41.364Z,107.70
2019-01-27T18:49:11.181Z,103.60
2019-01-27T18:51:41.301Z,108.93
2019-01-27T18:54:29.125Z,120.03
2019-01-27T18:57:11.069Z,122.57
2019-01-27T19:00:12.269Z,126.40
2019-01-27T19:03:13.016Z,108.20
2019-01-27T19:05:57.935Z,76.93
2019-01-27T19:08:46.472Z,71.50
2019-01-27T19:11:38.194Z,55.07
2019-01-27T19:14:24.989Z,40.97
2019-01-27T19:17:12.326Z,35.83
2019-01-27T19:19:54.066Z,32.03
2019-01-27T19:22:48.747Z,31.63
2019-01-27T19:25:39.979Z,35.40
2019-01-27T19:28:26.878Z,33.63
2019-01-27T19:31:03.090Z,34.07
2019-01-27T19:33:41.668Z,30.90
2019-01-27T19:36:33.598Z,34.43
2019-01-27T19:39:21.028Z,40.43
2019-01-27T19:42:12.150Z,37.43
2019-01-27T19:45:00.713Z,38.20
2019-01-27T19:47:45.628Z,33.17
2019-01-27T19:50:49.531Z,35.97
2019-01-27T19:53:40.722Z,34.43
2019-01-27T19:56:18.329Z,34.60
2019-01-27T19:58:54.795Z,40.50
2019-01-27T20:01:45.648Z,45.90
2019-01-27T20:04:24.577Z,55.97
2019-01-27T20:07:04.607Z,57.70
2019-01-27T20:09:42.565Z,54.50
2019-01-27T20:12:31.286Z,44.83
2019-01-27T20:15:06.513Z,44.17
2019-01-27T20:18:10.250Z,57.73
2019-01-27T20:20:54.139Z,54.33
2019-01-27T20:23:40.810Z,54.73
2019-01-27T20:26:28.962Z,67.03
2019-01-27T20:29:30.004Z,75.40
2019-01-27T20:32:18.445Z,91.83
2019-01-27T20:35:05.852Z,95.23
2019-01-27T20:38:06.056Z,99.43
2019-01-27T20:40:57.804Z,111.37
2019-01-27T20:43:45.303Z,98.20
2019-01-27T20:46:28.270Z,100.80
2019-01-27T20:49:17.115Z,91.80
2019-01-27T20:52:04.043Z,80.87
2019-01-27T20:54:57.056Z,79.73
2019-01-27T20:57:57.510Z,73.57
2019-01-27T21:00:48.317Z,60.57
2019-01-27T21:03:48.507Z,69.23
2019-01-27T21:06:42.229Z,67.53
2019-01-27T21:09:21.997Z,67.00
2019-01-27T21:12:13.667Z,79.50
2019-01-27T21:14:53.426Z,78.90
2019-01-27T21:17:31.855Z,86.83
2019-01-27T21:20:07.977Z,84.73
2019-01-27T21:22:38.157Z,95.60
2019-01-27T21:25:09.135Z,107.43
2019-01-27T21:27:38.335Z,108.90
2019-01-27T21:30:09.264Z,99.97
2019-01-27T21:32:38.864Z,87.57
2019-01-27T21:35:10.025Z,80.63
2019-01-27T21:37:39.437Z,74.13
2019-01-27T21:40:12.460Z,64.10
2019-01-27T21:42:47.190Z,66.10
2019-01-27T21:45:13.255Z,70.90
2019-01-27T21:47:43.153Z,72.67
2019-01-27T21:50:15.663Z,76.57
2019-01-27T21:52:45.239Z,80.90
2019-01-27T21:55:15.097Z,80.57
2019-01-27T21:57:44.678Z,75.80
2019-01-27T22:00:19.152Z,74.47
2019-01-27T22:02:49.280Z,67.40
2019-01-27T22:05:18.492Z,77.27
2019-01-27T22:07:47.584Z,73.30
2019-01-27T22:10:17.082Z,71.87
2019-01-27T22:12:46.546Z,88.33
2019-01-27T22:15:16.030Z,79.87
2019-01-27T22:17:45.122Z,73.70
2019-01-27T22:20:15.805Z,74.57
2019-01-27T22:22:45.854Z,68.67
2019-01-27T22:25:15.362Z,70.70
2019-01-27T22:27:44.923Z,81.43
2019-01-27T22:30:17.956Z,77.47
2019-01-27T22:32:47.681Z,71.37
2019-01-27T22:35:17.563Z,73.90
2019-01-27T22:37:46.654Z,71.47
2019-01-27T22:40:17.229Z,72.43
2019-01-27T22:42:47.068Z,71.17
2019-01-27T22:45:16.782Z,68.13
2019-01-27T22:47:46.445Z,76.97
2019-01-27T22:50:17.614Z,80.10
2019-01-27T22:52:46.767Z,78.50
2019-01-27T22:55:15.868Z,83.47
2019-01-27T22:57:45.395Z,87.47
2019-01-27T23:00:35.346Z,85.73
2019-01-27T23:03:05.297Z,87.73
2019-01-27T23:05:35.153Z,83.27
2019-01-27T23:08:05.020Z,83.70
2019-01-27T23:10:34.519Z,84.33
2019-01-27T23:13:04.182Z,79.30
2019-01-27T23:15:33.672Z,87.53
2019-01-27T23:18:03.668Z,81.37
2019-01-27T23:20:33.554Z,81.60
2019-01-27T23:23:03.358Z,82.63
2019-01-27T23:25:32.481Z,82.00
2019-01-27T23:28:02.330Z,87.00
2019-01-27T23:30:32.093Z,77.37
2019-01-27T23:33:01.508Z,85.17
2019-01-27T23:35:31.017Z,84.27
2019-01-27T23:38:00.135Z,83.83
2019-01-27T23:40:30.286Z,73.57
2019-01-27T23:42:59.464Z,84.47
2019-01-27T23:45:29.293Z,84.27
2019-01-27T23:48:17.945Z,85.70
2019-01-27T23:50:47.664Z,80.93
2019-01-27T23:53:17.135Z,82.80
2019-01-27T23:55:46.687Z,84.27
2019-01-27T23:58:16.103Z,82.97
